• Join FlightAware (Why Join?)
  • Login
  • US Flag 
08:17AM EDT


 

Airport Tracker/Info


-or-


 

Live Flight TrackerFlight Track Log ✈ SKW5631 ✈ 04-Oct-2013 ✈ KSFO - KBUR

Flight Track Log - Related Links

Times and Time Zones

All times are in EDT time to prevent confusion due to time zone crossing. See the SKW5631 flight status page for this flight to view local times or setup timezone preferences in your user account.

Time Position Orientation Groundspeed Altitude Reporting Facility
EDT Latitude Longitude Course Direction KTS MPH feet Rate Location/Type
10:14PM 37.6333 -122.3667 135° Southeast 143 165 700  Level Northern Cal TRACON
10:15PM 37.6833 -122.3667 360° North 187 215 2,500 1,740 Climbing Northern Cal TRACON
10:16PM 37.6667 -122.4500 256° West 270 311 4,200 2,460 Climbing Northern Cal TRACON
10:17PM 37.3173 -121.9994 135° Southeast  Level Estimated
10:17PM 37.6333 -122.5167 238° Southwest 283 326 7,500  Level Northern Cal TRACON
10:18PM 37.2164 -121.8748 133° Southeast  Level Estimated
10:18PM 37.5500 -122.5167 180° South 288 331 9,600  Level Northern Cal TRACON
10:19PM 37.1154 -121.7505 135° Southeast  Level Estimated
10:19PM 37.5000 -122.4500 133° Southeast 300 345 11,400  Level Northern Cal TRACON
10:19PM 37.4669 -122.4303 155° Southeast 301 346 12,300 1,560 Climbing Oakland Center
10:21PM 37.4022 -122.3558 138° Southeast 310 357 13,800 1,620 Climbing Oakland Center
10:22PM 37.3314 -122.2781 139° Southeast 332 382 15,600 1,500 Climbing Oakland Center
10:23PM 37.2600 -122.1972 138° Southeast 344 396 16,900 1,440 Climbing Oakland Center
10:24PM 37.1861 -122.1164 139° Southeast 351 404 18,600 1,500 Climbing Oakland Center
10:25PM 37.0964 -122.0153 138° Southeast 361 415 20,000 1,200 Climbing Oakland Center
10:26PM 37.0189 -121.9272 138° Southeast 376 433 21,100 1,020 Climbing Oakland Center
10:27PM 36.9383 -121.8392 139° Southeast 384 442 22,100 960 Climbing Oakland Center
10:28PM 36.8539 -121.7528 141° Southeast 390 449 23,100 840 Climbing Oakland Center
10:29PM 36.7764 -121.6703 140° Southeast 399 459 23,900 780 Climbing Oakland Center
10:30PM 36.6939 -121.5758 137° Southeast 402 463 24,800 900 Climbing Oakland Center
10:31PM 36.5917 -121.4636 139° Southeast 410 472 25,800 780 Climbing Oakland Center
10:32PM 36.5056 -121.3700 139° Southeast 411 473 26,500 540 Climbing Oakland Center
10:33PM 36.4175 -121.2747 139° Southeast 420 483 27,000 240 Climbing Oakland Center
10:34PM 36.3267 -121.1769 139° Southeast 433 498 27,000  Level Oakland Center
10:35PM 36.2350 -121.0769 139° Southeast 439 505 27,000  Level Oakland Center
10:36PM 36.1425 -120.9778 139° Southeast 441 507 27,000  Level Oakland Center
10:37PM 36.0514 -120.8783 139° Southeast 437 503 27,000  Level Oakland Center
10:38PM 35.9611 -120.7828 139° Southeast 429 494 27,000  Level Oakland Center
10:39PM 35.8736 -120.6883 139° Southeast 419 482 27,000  Level Oakland Center
10:40PM 35.7869 -120.5964 139° Southeast 414 476 27,000  Level Oakland Center
10:41PM 35.6986 -120.5022 139° Southeast 418 481 27,000  Level Oakland Center
10:42PM 35.5925 -120.3900 139° Southeast 418 481 27,000  Level Oakland Center
10:43PM 35.5022 -120.2942 139° Southeast 422 486 27,000  Level Oakland Center
10:44PM 35.4161 -120.2042 140° Southeast 430 495 27,000  Level Los Angeles Center
10:45PM 35.3172 -120.0983 139° Southeast 429 494 27,000  Level Los Angeles Center
10:46PM 35.2264 -120.0042 140° Southeast 426 490 27,000  Level Los Angeles Center
10:47PM 35.1353 -119.9100 140° Southeast 428 493 27,000  Level Los Angeles Center
10:48PM 35.0522 -119.8103 135° Southeast 420 483 27,000 -540 Level Los Angeles Center
10:49PM 34.9753 -119.7053 132° Southeast 416 479 26,000 -1,620 Descending Los Angeles Center
10:50PM 34.8981 -119.6022 132° Southeast 413 475 23,700 -2,520 Descending Los Angeles Center
10:51PM 34.8069 -119.4794 132° Southeast 407 468 20,900 -2,640 Descending Los Angeles Center
10:52PM 34.7344 -119.3811 132° Southeast 393 452 18,400 -2,460 Descending Los Angeles Center
10:53PM 34.6633 -119.2869 133° Southeast 381 438 15,900 -2,520 Descending Los Angeles Center
10:54PM 34.5889 -119.1897 133° Southeast 367 422 13,300 -2,160 Descending Los Angeles Center
10:55PM 34.5239 -119.1056 133° Southeast 347 399 11,500 -1,140 Descending Los Angeles Center
10:56PM 34.4672 -119.0294 132° Southeast 298 343 11,000 -780 Descending Los Angeles Center
10:57PM 34.4128 -118.9533 131° Southeast 295 339 10,000 -1,080 Descending Los Angeles Center
10:58PM 34.3681 -118.8775 126° Southeast 273 314 8,800 -1,320 Descending Los Angeles Center
10:59PM 34.3217 -118.8089 129° Southeast 264 304 7,300 -1,380 Descending Los Angeles Center
11:00PM 34.2814 -118.7428 126° Southeast 248 285 6,000 -840 Descending Los Angeles Center
11:01PM 34.2339 -118.6672 127° Southeast 237 273 5,600 -480 Descending Los Angeles Center
11:02PM 34.2000 -118.6167 129° Southeast 196 226 5,200 -900 Descending Southern California TRACON
11:03PM 34.2000 -118.5667 90° East 162 186 4,100 -960 Descending Southern California TRACON
11:04PM 34.2000 -118.5167 90° East 135 155 3,200 -720 Descending Southern California TRACON
11:05PM 34.2000 -118.4833 90° East 120 138 2,600 -720 Descending Southern California TRACON
11:06PM 34.2000 -118.4333 90° East 126 145 1,800 -780 Descending Southern California TRACON
11:07PM 34.2000 -118.4000 90° East 126 145 1,200 -480 Descending Southern California TRACON
11:09PM 34.1992 -118.3444 91° East 128 147 800 -300 Descending Los Angeles Center